Aviation Digital Data Service (ADDS)

Output produced by TAFs form (0438 UTC 28 July 2017)
found at http://www.aviationweather.gov/adds/tafs/
 
METAR text: RJOW 280400Z 34005KT 290V040 9999 FEW006 SCT010 BKN015 29/26 Q1008
Conditions at: RJOW (IWAMI , JP) observed 0400 UTC 28 July 2017
Temperature: 29.0°C (84°F)
Dewpoint: 26.0°C (79°F) [RH = 84%]
Pressure (altimeter): 29.76 inches Hg (1008.0 mb)
Winds: from the NNW (340 degrees) at 6 MPH (5 knots; 2.6 m/s)
Visibility: 6 or more miles (10+ km)
Ceiling: 1500 feet AGL
Clouds: few clouds at 600 feet AGL
scattered clouds at 1000 feet AGL
broken clouds at 1500 feet AGL
Weather: no significant weather observed at this time